sensor_id;sensor_type;location;lat;lon;timestamp;P1;durP1;ratioP1;P2;durP2;ratioP2
44120;SDS011;29783;52.504;13.478;2022-08-04T00:05:09;9.02;;;4.28;;
44120;SDS011;29783;52.504;13.478;2022-08-04T00:07:49;6.68;;;4.70;;
44120;SDS011;29783;52.504;13.478;2022-08-04T00:10:23;11.13;;;4.55;;
44120;SDS011;29783;52.504;13.478;2022-08-04T00:12:51;11.88;;;4.10;;
44120;SDS011;29783;52.504;13.478;2022-08-04T00:15:20;8.65;;;4.32;;
44120;SDS011;29783;52.504;13.478;2022-08-04T00:17:53;9.48;;;4.63;;
44120;SDS011;29783;52.504;13.478;2022-08-04T00:20:23;14.18;;;4.80;;
44120;SDS011;29783;52.504;13.478;2022-08-04T00:22:54;7.03;;;4.07;;
44120;SDS011;29783;52.504;13.478;2022-08-04T00:25:21;8.32;;;4.25;;
44120;SDS011;29783;52.504;13.478;2022-08-04T00:27:47;10.82;;;4.43;;
44120;SDS011;29783;52.504;13.478;2022-08-04T00:30:13;10.45;;;4.20;;
44120;SDS011;29783;52.504;13.478;2022-08-04T00:32:39;14.93;;;4.80;;
44120;SDS011;29783;52.504;13.478;2022-08-04T00:35:05;13.57;;;4.55;;
44120;SDS011;29783;52.504;13.478;2022-08-04T00:37:33;8.55;;;4.10;;
44120;SDS011;29783;52.504;13.478;2022-08-04T00:43:20;10.57;;;4.38;;
44120;SDS011;29783;52.504;13.478;2022-08-04T00:59:32;12.25;;;4.38;;
44120;SDS011;29783;52.504;13.478;2022-08-04T01:05:05;12.77;;;4.15;;
44120;SDS011;29783;52.504;13.478;2022-08-04T01:07:50;9.88;;;4.05;;
44120;SDS011;29783;52.504;13.478;2022-08-04T01:10:39;8.40;;;3.78;;
44120;SDS011;29783;52.504;13.478;2022-08-04T01:15:56;10.98;;;3.85;;
44120;SDS011;29783;52.504;13.478;2022-08-04T01:18:29;5.05;;;3.55;;
44120;SDS011;29783;52.504;13.478;2022-08-04T01:29:19;17.33;;;5.20;;
44120;SDS011;29783;52.504;13.478;2022-08-04T01:32:03;9.50;;;4.63;;
44120;SDS011;29783;52.504;13.478;2022-08-04T01:40:01;7.43;;;4.10;;
44120;SDS011;29783;52.504;13.478;2022-08-04T01:42:30;10.85;;;3.28;;
44120;SDS011;29783;52.504;13.478;2022-08-04T01:44:58;6.97;;;4.07;;
44120;SDS011;29783;52.504;13.478;2022-08-04T01:47:27;13.60;;;4.22;;
44120;SDS011;29783;52.504;13.478;2022-08-04T01:49:56;9.23;;;3.85;;
44120;SDS011;29783;52.504;13.478;2022-08-04T01:52:34;6.72;;;4.25;;
44120;SDS011;29783;52.504;13.478;2022-08-04T01:55:02;6.28;;;3.72;;
44120;SDS011;29783;52.504;13.478;2022-08-04T01:57:29;12.70;;;3.50;;
44120;SDS011;29783;52.504;13.478;2022-08-04T01:59:59;7.50;;;3.88;;
44120;SDS011;29783;52.504;13.478;2022-08-04T02:02:25;12.00;;;4.05;;
44120;SDS011;29783;52.504;13.478;2022-08-04T02:04:51;7.03;;;3.85;;
44120;SDS011;29783;52.504;13.478;2022-08-04T02:07:31;7.25;;;3.90;;
44120;SDS011;29783;52.504;13.478;2022-08-04T02:10:36;4.80;;;3.33;;
44120;SDS011;29783;52.504;13.478;2022-08-04T02:18:20;6.57;;;3.45;;
44120;SDS011;29783;52.504;13.478;2022-08-04T02:20:48;4.68;;;3.30;;
44120;SDS011;29783;52.504;13.478;2022-08-04T02:23:29;5.50;;;3.20;;
44120;SDS011;29783;52.504;13.478;2022-08-04T02:26:01;7.05;;;3.22;;
44120;SDS011;29783;52.504;13.478;2022-08-04T02:28:46;5.28;;;3.22;;
44120;SDS011;29783;52.504;13.478;2022-08-04T02:36:42;9.15;;;3.35;;
44120;SDS011;29783;52.504;13.478;2022-08-04T02:39:10;6.00;;;3.40;;
44120;SDS011;29783;52.504;13.478;2022-08-04T02:41:37;6.75;;;3.53;;
44120;SDS011;29783;52.504;13.478;2022-08-04T02:44:05;7.75;;;3.25;;
44120;SDS011;29783;52.504;13.478;2022-08-04T02:46:33;10.82;;;3.08;;
44120;SDS011;29783;52.504;13.478;2022-08-04T02:49:03;7.68;;;3.40;;
44120;SDS011;29783;52.504;13.478;2022-08-04T02:54:05;5.70;;;2.90;;
44120;SDS011;29783;52.504;13.478;2022-08-04T02:56:33;7.32;;;3.20;;
44120;SDS011;29783;52.504;13.478;2022-08-04T02:59:07;7.22;;;3.00;;
44120;SDS011;29783;52.504;13.478;2022-08-04T03:01:37;10.23;;;2.97;;
44120;SDS011;29783;52.504;13.478;2022-08-04T03:04:18;14.25;;;3.25;;
44120;SDS011;29783;52.504;13.478;2022-08-04T03:15:34;12.77;;;3.50;;
44120;SDS011;29783;52.504;13.478;2022-08-04T03:47:31;4.88;;;3.20;;
44120;SDS011;29783;52.504;13.478;2022-08-04T03:56:00;6.38;;;3.28;;
44120;SDS011;29783;52.504;13.478;2022-08-04T04:01:59;4.60;;;2.92;;
44120;SDS011;29783;52.504;13.478;2022-08-04T04:16:28;6.65;;;3.42;;
44120;SDS011;29783;52.504;13.478;2022-08-04T04:27:15;7.93;;;3.35;;
44120;SDS011;29783;52.504;13.478;2022-08-04T04:35:55;6.30;;;3.50;;
44120;SDS011;29783;52.504;13.478;2022-08-04T04:41:04;9.55;;;3.83;;
44120;SDS011;29783;52.504;13.478;2022-08-04T04:46:40;7.47;;;3.63;;
44120;SDS011;29783;52.504;13.478;2022-08-04T04:52:12;7.43;;;3.70;;
44120;SDS011;29783;52.504;13.478;2022-08-04T04:57:22;7.72;;;3.80;;
44120;SDS011;29783;52.504;13.478;2022-08-04T05:00:08;5.28;;;4.00;;
44120;SDS011;29783;52.504;13.478;2022-08-04T05:02:42;4.60;;;3.90;;
44120;SDS011;29783;52.504;13.478;2022-08-04T05:13:41;8.48;;;4.03;;
44120;SDS011;29783;52.504;13.478;2022-08-04T05:16:17;10.20;;;4.53;;
44120;SDS011;29783;52.504;13.478;2022-08-04T05:18:47;8.25;;;4.40;;
44120;SDS011;29783;52.504;13.478;2022-08-04T05:24:23;4.78;;;4.35;;
44120;SDS011;29783;52.504;13.478;2022-08-04T05:26:53;9.25;;;4.22;;
44120;SDS011;29783;52.504;13.478;2022-08-04T05:31:52;12.55;;;4.80;;
44120;SDS011;29783;52.504;13.478;2022-08-04T05:34:19;7.13;;;4.43;;
44120;SDS011;29783;52.504;13.478;2022-08-04T05:36:52;7.22;;;4.40;;
44120;SDS011;29783;52.504;13.478;2022-08-04T05:39:27;7.68;;;4.30;;
44120;SDS011;29783;52.504;13.478;2022-08-04T05:41:55;14.52;;;4.85;;
44120;SDS011;29783;52.504;13.478;2022-08-04T05:44:22;13.23;;;4.95;;
44120;SDS011;29783;52.504;13.478;2022-08-04T05:46:51;10.95;;;4.32;;
44120;SDS011;29783;52.504;13.478;2022-08-04T05:49:20;11.35;;;4.68;;
44120;SDS011;29783;52.504;13.478;2022-08-04T05:51:48;16.83;;;4.82;;
44120;SDS011;29783;52.504;13.478;2022-08-04T05:54:15;11.57;;;4.15;;
44120;SDS011;29783;52.504;13.478;2022-08-04T05:56:45;14.25;;;4.72;;
44120;SDS011;29783;52.504;13.478;2022-08-04T05:59:11;12.07;;;4.40;;
44120;SDS011;29783;52.504;13.478;2022-08-04T06:01:38;17.27;;;4.80;;
44120;SDS011;29783;52.504;13.478;2022-08-04T06:04:04;7.13;;;4.13;;
44120;SDS011;29783;52.504;13.478;2022-08-04T06:06:31;24.05;;;5.93;;
44120;SDS011;29783;52.504;13.478;2022-08-04T06:08:57;16.20;;;4.72;;
44120;SDS011;29783;52.504;13.478;2022-08-04T06:11:24;16.92;;;4.50;;
44120;SDS011;29783;52.504;13.478;2022-08-04T06:13:54;10.40;;;4.20;;
44120;SDS011;29783;52.504;13.478;2022-08-04T06:16:23;12.90;;;4.88;;
44120;SDS011;29783;52.504;13.478;2022-08-04T06:18:51;20.45;;;4.65;;
44120;SDS011;29783;52.504;13.478;2022-08-04T06:21:19;12.00;;;4.53;;
44120;SDS011;29783;52.504;13.478;2022-08-04T06:23:49;22.92;;;4.70;;
44120;SDS011;29783;52.504;13.478;2022-08-04T06:26:15;22.13;;;4.50;;
44120;SDS011;29783;52.504;13.478;2022-08-04T06:28:47;12.75;;;4.20;;
44120;SDS011;29783;52.504;13.478;2022-08-04T06:31:16;16.83;;;4.40;;
44120;SDS011;29783;52.504;13.478;2022-08-04T06:34:06;11.80;;;4.47;;
44120;SDS011;29783;52.504;13.478;2022-08-04T06:36:33;15.32;;;5.35;;
44120;SDS011;29783;52.504;13.478;2022-08-04T06:39:02;19.92;;;4.50;;
44120;SDS011;29783;52.504;13.478;2022-08-04T06:41:29;9.95;;;4.18;;
44120;SDS011;29783;52.504;13.478;2022-08-04T06:44:00;7.35;;;3.65;;
44120;SDS011;29783;52.504;13.478;2022-08-04T06:46:29;19.17;;;4.10;;
44120;SDS011;29783;52.504;13.478;2022-08-04T06:48:56;11.10;;;3.85;;
44120;SDS011;29783;52.504;13.478;2022-08-04T06:51:22;8.88;;;3.78;;
44120;SDS011;29783;52.504;13.478;2022-08-04T06:53:49;9.23;;;4.13;;
44120;SDS011;29783;52.504;13.478;2022-08-04T06:56:15;23.05;;;4.25;;
44120;SDS011;29783;52.504;13.478;2022-08-04T06:58:43;15.60;;;3.92;;
44120;SDS011;29783;52.504;13.478;2022-08-04T07:01:11;7.35;;;3.63;;
44120;SDS011;29783;52.504;13.478;2022-08-04T07:03:38;16.58;;;3.90;;
44120;SDS011;29783;52.504;13.478;2022-08-04T07:06:03;9.25;;;3.47;;
44120;SDS011;29783;52.504;13.478;2022-08-04T07:08:29;9.52;;;3.38;;
44120;SDS011;29783;52.504;13.478;2022-08-04T07:10:56;14.60;;;3.30;;
44120;SDS011;29783;52.504;13.478;2022-08-04T07:13:22;7.55;;;3.45;;
44120;SDS011;29783;52.504;13.478;2022-08-04T07:15:49;8.38;;;3.40;;
44120;SDS011;29783;52.504;13.478;2022-08-04T07:18:16;12.02;;;3.65;;
44120;SDS011;29783;52.504;13.478;2022-08-04T07:20:42;5.63;;;3.20;;
44120;SDS011;29783;52.504;13.478;2022-08-04T07:23:08;7.97;;;3.30;;
44120;SDS011;29783;52.504;13.478;2022-08-04T07:25:37;10.77;;;3.58;;
44120;SDS011;29783;52.504;13.478;2022-08-04T07:28:03;14.43;;;3.70;;
44120;SDS011;29783;52.504;13.478;2022-08-04T07:30:29;7.80;;;3.53;;
44120;SDS011;29783;52.504;13.478;2022-08-04T07:32:55;10.35;;;3.53;;
44120;SDS011;29783;52.504;13.478;2022-08-04T07:35:21;11.70;;;3.30;;
44120;SDS011;29783;52.504;13.478;2022-08-04T07:37:47;10.18;;;3.10;;
44120;SDS011;29783;52.504;13.478;2022-08-04T07:40:13;12.70;;;3.30;;
44120;SDS011;29783;52.504;13.478;2022-08-04T07:42:38;12.43;;;3.33;;
44120;SDS011;29783;52.504;13.478;2022-08-04T07:45:05;9.55;;;2.58;;
44120;SDS011;29783;52.504;13.478;2022-08-04T07:47:31;9.13;;;2.90;;
44120;SDS011;29783;52.504;13.478;2022-08-04T07:49:58;9.10;;;2.97;;
44120;SDS011;29783;52.504;13.478;2022-08-04T07:52:24;3.38;;;2.55;;
44120;SDS011;29783;52.504;13.478;2022-08-04T07:54:50;11.05;;;2.92;;
44120;SDS011;29783;52.504;13.478;2022-08-04T07:57:17;6.00;;;2.47;;
44120;SDS011;29783;52.504;13.478;2022-08-04T07:59:44;9.15;;;2.97;;
44120;SDS011;29783;52.504;13.478;2022-08-04T08:02:10;14.07;;;2.72;;
44120;SDS011;29783;52.504;13.478;2022-08-04T08:04:43;9.55;;;3.83;;
44120;SDS011;29783;52.504;13.478;2022-08-04T08:07:10;9.45;;;2.88;;
44120;SDS011;29783;52.504;13.478;2022-08-04T08:09:36;10.88;;;2.60;;
44120;SDS011;29783;52.504;13.478;2022-08-04T08:12:02;14.55;;;2.80;;
44120;SDS011;29783;52.504;13.478;2022-08-04T08:14:28;36.95;;;3.60;;
44120;SDS011;29783;52.504;13.478;2022-08-04T08:16:55;6.45;;;2.60;;
44120;SDS011;29783;52.504;13.478;2022-08-04T08:19:23;7.30;;;2.83;;
44120;SDS011;29783;52.504;13.478;2022-08-04T08:21:49;23.75;;;2.83;;
44120;SDS011;29783;52.504;13.478;2022-08-04T08:24:15;13.80;;;3.08;;
44120;SDS011;29783;52.504;13.478;2022-08-04T08:26:44;11.57;;;2.80;;
44120;SDS011;29783;52.504;13.478;2022-08-04T08:29:09;6.18;;;2.50;;
44120;SDS011;29783;52.504;13.478;2022-08-04T08:31:35;19.92;;;2.90;;
44120;SDS011;29783;52.504;13.478;2022-08-04T08:34:01;9.63;;;2.97;;
44120;SDS011;29783;52.504;13.478;2022-08-04T08:36:28;12.65;;;2.63;;
44120;SDS011;29783;52.504;13.478;2022-08-04T08:39:01;9.40;;;2.75;;
44120;SDS011;29783;52.504;13.478;2022-08-04T08:47:19;6.53;;;2.70;;
44120;SDS011;29783;52.504;13.478;2022-08-04T08:55:59;12.03;;;2.87;;
44120;SDS011;29783;52.504;13.478;2022-08-04T09:12:40;7.78;;;1.98;;
44120;SDS011;29783;52.504;13.478;2022-08-04T09:21:10;9.93;;;2.75;;
44120;SDS011;29783;52.504;13.478;2022-08-04T09:26:49;13.07;;;3.17;;
44120;SDS011;29783;52.504;13.478;2022-08-04T09:29:19;12.27;;;2.00;;
44120;SDS011;29783;52.504;13.478;2022-08-04T09:31:56;8.43;;;2.00;;
44120;SDS011;29783;52.504;13.478;2022-08-04T09:45:28;7.75;;;1.67;;
44120;SDS011;29783;52.504;13.478;2022-08-04T09:48:33;7.28;;;2.00;;
44120;SDS011;29783;52.504;13.478;2022-08-04T09:51:33;6.13;;;1.60;;
44120;SDS011;29783;52.504;13.478;2022-08-04T09:54:20;8.23;;;1.83;;
44120;SDS011;29783;52.504;13.478;2022-08-04T09:56:56;6.90;;;1.60;;
44120;SDS011;29783;52.504;13.478;2022-08-04T09:59:40;14.63;;;1.65;;
44120;SDS011;29783;52.504;13.478;2022-08-04T10:02:14;5.20;;;1.85;;
44120;SDS011;29783;52.504;13.478;2022-08-04T10:04:43;11.65;;;1.67;;
44120;SDS011;29783;52.504;13.478;2022-08-04T10:12:26;12.05;;;1.80;;
44120;SDS011;29783;52.504;13.478;2022-08-04T10:17:41;7.75;;;1.75;;
44120;SDS011;29783;52.504;13.478;2022-08-04T10:26:04;5.10;;;1.67;;
44120;SDS011;29783;52.504;13.478;2022-08-04T10:28:34;4.88;;;1.50;;
44120;SDS011;29783;52.504;13.478;2022-08-04T10:31:08;5.03;;;1.70;;
44120;SDS011;29783;52.504;13.478;2022-08-04T10:33:44;9.10;;;1.60;;
44120;SDS011;29783;52.504;13.478;2022-08-04T10:36:20;5.38;;;1.40;;
44120;SDS011;29783;52.504;13.478;2022-08-04T10:38:49;2.78;;;1.40;;
44120;SDS011;29783;52.504;13.478;2022-08-04T10:46:30;2.95;;;1.55;;
44120;SDS011;29783;52.504;13.478;2022-08-04T10:54:05;13.52;;;1.20;;
44120;SDS011;29783;52.504;13.478;2022-08-04T10:56:49;6.65;;;1.70;;
44120;SDS011;29783;52.504;13.478;2022-08-04T10:59:27;5.97;;;1.23;;
44120;SDS011;29783;52.504;13.478;2022-08-04T11:02:00;6.80;;;1.50;;
44120;SDS011;29783;52.504;13.478;2022-08-04T11:04:43;9.57;;;1.70;;
44120;SDS011;29783;52.504;13.478;2022-08-04T11:07:12;6.72;;;1.10;;
44120;SDS011;29783;52.504;13.478;2022-08-04T11:09:43;9.27;;;1.60;;
44120;SDS011;29783;52.504;13.478;2022-08-04T11:12:13;5.53;;;1.38;;
44120;SDS011;29783;52.504;13.478;2022-08-04T11:15:48;6.10;;;1.38;;
44120;SDS011;29783;52.504;13.478;2022-08-04T11:17:48;3.35;;;1.33;;
44120;SDS011;29783;52.504;13.478;2022-08-04T11:23:13;2.97;;;1.33;;
44120;SDS011;29783;52.504;13.478;2022-08-04T11:28:38;1.35;;;1.10;;
44120;SDS011;29783;52.504;13.478;2022-08-04T11:31:26;3.95;;;1.30;;
44120;SDS011;29783;52.504;13.478;2022-08-04T11:33:56;5.22;;;1.20;;
44120;SDS011;29783;52.504;13.478;2022-08-04T11:41:38;1.90;;;0.90;;
44120;SDS011;29783;52.504;13.478;2022-08-04T11:44:11;2.47;;;1.05;;
44120;SDS011;29783;52.504;13.478;2022-08-04T11:46:46;5.70;;;1.05;;
44120;SDS011;29783;52.504;13.478;2022-08-04T11:49:19;2.05;;;1.42;;
44120;SDS011;29783;52.504;13.478;2022-08-04T11:51:54;2.15;;;1.40;;
44120;SDS011;29783;52.504;13.478;2022-08-04T11:54:22;7.32;;;1.50;;
44120;SDS011;29783;52.504;13.478;2022-08-04T11:56:47;14.00;;;1.60;;
44120;SDS011;29783;52.504;13.478;2022-08-04T11:59:17;3.35;;;1.98;;
44120;SDS011;29783;52.504;13.478;2022-08-04T12:02:14;2.35;;;1.20;;
44120;SDS011;29783;52.504;13.478;2022-08-04T12:05:01;2.63;;;1.20;;
44120;SDS011;29783;52.504;13.478;2022-08-04T12:19:01;1.58;;;0.90;;
44120;SDS011;29783;52.504;13.478;2022-08-04T12:21:34;4.38;;;1.10;;
44120;SDS011;29783;52.504;13.478;2022-08-04T12:24:16;3.80;;;1.25;;
44120;SDS011;29783;52.504;13.478;2022-08-04T12:26:51;2.28;;;0.90;;
44120;SDS011;29783;52.504;13.478;2022-08-04T12:29:20;6.53;;;1.60;;
44120;SDS011;29783;52.504;13.478;2022-08-04T12:31:47;10.02;;;1.20;;
44120;SDS011;29783;52.504;13.478;2022-08-04T12:34:42;6.13;;;1.00;;
44120;SDS011;29783;52.504;13.478;2022-08-04T12:40:02;4.95;;;0.82;;
44120;SDS011;29783;52.504;13.478;2022-08-04T12:42:39;0.95;;;0.73;;
44120;SDS011;29783;52.504;13.478;2022-08-04T12:45:09;6.68;;;0.90;;
44120;SDS011;29783;52.504;13.478;2022-08-04T12:47:36;4.07;;;0.80;;
44120;SDS011;29783;52.504;13.478;2022-08-04T12:50:05;4.07;;;1.20;;
44120;SDS011;29783;52.504;13.478;2022-08-04T12:52:39;8.55;;;0.80;;
44120;SDS011;29783;52.504;13.478;2022-08-04T12:55:11;2.03;;;0.77;;
44120;SDS011;29783;52.504;13.478;2022-08-04T12:57:37;3.70;;;0.82;;
44120;SDS011;29783;52.504;13.478;2022-08-04T13:00:05;6.53;;;0.93;;
44120;SDS011;29783;52.504;13.478;2022-08-04T13:02:35;6.07;;;0.98;;
44120;SDS011;29783;52.504;13.478;2022-08-04T13:05:06;3.58;;;0.60;;
44120;SDS011;29783;52.504;13.478;2022-08-04T13:07:37;11.02;;;0.90;;
44120;SDS011;29783;52.504;13.478;2022-08-04T13:10:14;3.47;;;0.90;;
44120;SDS011;29783;52.504;13.478;2022-08-04T13:12:42;12.75;;;1.02;;
44120;SDS011;29783;52.504;13.478;2022-08-04T13:15:16;7.53;;;0.98;;
44120;SDS011;29783;52.504;13.478;2022-08-04T13:17:49;4.85;;;0.70;;
44120;SDS011;29783;52.504;13.478;2022-08-04T13:20:41;4.18;;;1.00;;
44120;SDS011;29783;52.504;13.478;2022-08-04T13:23:12;13.68;;;1.73;;
44120;SDS011;29783;52.504;13.478;2022-08-04T13:25:41;1.77;;;0.93;;
44120;SDS011;29783;52.504;13.478;2022-08-04T13:28:15;7.40;;;1.35;;
44120;SDS011;29783;52.504;13.478;2022-08-04T13:30:44;15.20;;;1.08;;
44120;SDS011;29783;52.504;13.478;2022-08-04T13:33:12;8.05;;;1.58;;
44120;SDS011;29783;52.504;13.478;2022-08-04T13:35:46;3.38;;;0.80;;
44120;SDS011;29783;52.504;13.478;2022-08-04T13:38:13;6.78;;;1.02;;
44120;SDS011;29783;52.504;13.478;2022-08-04T13:40:41;3.30;;;1.10;;
44120;SDS011;29783;52.504;13.478;2022-08-04T13:43:08;2.38;;;0.93;;
44120;SDS011;29783;52.504;13.478;2022-08-04T13:45:37;11.50;;;1.40;;
44120;SDS011;29783;52.504;13.478;2022-08-04T13:48:05;2.53;;;0.90;;
44120;SDS011;29783;52.504;13.478;2022-08-04T13:50:34;12.88;;;0.98;;
44120;SDS011;29783;52.504;13.478;2022-08-04T13:53:02;10.93;;;1.02;;
44120;SDS011;29783;52.504;13.478;2022-08-04T13:55:34;12.23;;;1.48;;
44120;SDS011;29783;52.504;13.478;2022-08-04T13:58:04;1.38;;;0.65;;
44120;SDS011;29783;52.504;13.478;2022-08-04T14:00:42;5.13;;;1.20;;
44120;SDS011;29783;52.504;13.478;2022-08-04T14:03:17;3.17;;;0.73;;
44120;SDS011;29783;52.504;13.478;2022-08-04T14:09:14;6.18;;;1.00;;
44120;SDS011;29783;52.504;13.478;2022-08-04T14:11:48;8.20;;;0.80;;
44120;SDS011;29783;52.504;13.478;2022-08-04T14:14:17;5.07;;;0.60;;
44120;SDS011;29783;52.504;13.478;2022-08-04T14:19:24;4.28;;;0.70;;
44120;SDS011;29783;52.504;13.478;2022-08-04T14:21:51;1.48;;;0.60;;
44120;SDS011;29783;52.504;13.478;2022-08-04T14:24:26;4.35;;;0.80;;
44120;SDS011;29783;52.504;13.478;2022-08-04T14:26:59;6.72;;;0.52;;
44120;SDS011;29783;52.504;13.478;2022-08-04T14:29:25;1.85;;;0.73;;
44120;SDS011;29783;52.504;13.478;2022-08-04T14:32:03;2.85;;;0.70;;
44120;SDS011;29783;52.504;13.478;2022-08-04T14:34:30;0.77;;;0.60;;
44120;SDS011;29783;52.504;13.478;2022-08-04T14:36:56;2.03;;;0.68;;
44120;SDS011;29783;52.504;13.478;2022-08-04T14:39:38;5.68;;;0.70;;
44120;SDS011;29783;52.504;13.478;2022-08-04T14:42:11;1.75;;;0.73;;
44120;SDS011;29783;52.504;13.478;2022-08-04T14:45:11;5.35;;;0.65;;
44120;SDS011;29783;52.504;13.478;2022-08-04T14:47:40;8.70;;;0.80;;
44120;SDS011;29783;52.504;13.478;2022-08-04T14:50:11;9.77;;;0.90;;
44120;SDS011;29783;52.504;13.478;2022-08-04T14:52:37;4.57;;;0.73;;
44120;SDS011;29783;52.504;13.478;2022-08-04T14:57:50;2.53;;;0.70;;
44120;SDS011;29783;52.504;13.478;2022-08-04T15:00:26;5.05;;;1.00;;
44120;SDS011;29783;52.504;13.478;2022-08-04T15:02:56;2.35;;;0.65;;
44120;SDS011;29783;52.504;13.478;2022-08-04T15:05:26;4.78;;;0.90;;
44120;SDS011;29783;52.504;13.478;2022-08-04T15:07:54;4.82;;;0.85;;
44120;SDS011;29783;52.504;13.478;2022-08-04T15:10:20;7.22;;;0.93;;
44120;SDS011;29783;52.504;13.478;2022-08-04T15:12:46;4.15;;;0.70;;
44120;SDS011;29783;52.504;13.478;2022-08-04T15:15:12;1.08;;;0.52;;
44120;SDS011;29783;52.504;13.478;2022-08-04T15:17:38;11.35;;;0.70;;
44120;SDS011;29783;52.504;13.478;2022-08-04T15:20:05;5.50;;;0.77;;
44120;SDS011;29783;52.504;13.478;2022-08-04T15:22:31;5.10;;;0.90;;
44120;SDS011;29783;52.504;13.478;2022-08-04T15:24:57;2.92;;;0.70;;
44120;SDS011;29783;52.504;13.478;2022-08-04T15:27:24;3.33;;;0.70;;
44120;SDS011;29783;52.504;13.478;2022-08-04T15:29:55;6.28;;;0.80;;
44120;SDS011;29783;52.504;13.478;2022-08-04T15:32:24;5.55;;;1.20;;
44120;SDS011;29783;52.504;13.478;2022-08-04T15:34:51;3.83;;;0.70;;
44120;SDS011;29783;52.504;13.478;2022-08-04T15:37:30;3.65;;;0.70;;
44120;SDS011;29783;52.504;13.478;2022-08-04T15:42:46;6.07;;;0.70;;
44120;SDS011;29783;52.504;13.478;2022-08-04T15:45:17;1.42;;;0.50;;
44120;SDS011;29783;52.504;13.478;2022-08-04T15:50:28;3.40;;;0.50;;
44120;SDS011;29783;52.504;13.478;2022-08-04T15:55:28;0.77;;;0.50;;
44120;SDS011;29783;52.504;13.478;2022-08-04T15:57:58;3.65;;;0.70;;
44120;SDS011;29783;52.504;13.478;2022-08-04T16:00:24;7.93;;;0.70;;
44120;SDS011;29783;52.504;13.478;2022-08-04T16:02:50;5.18;;;0.50;;
44120;SDS011;29783;52.504;13.478;2022-08-04T16:07:55;4.07;;;0.60;;
44120;SDS011;29783;52.504;13.478;2022-08-04T16:10:35;6.38;;;0.60;;
44120;SDS011;29783;52.504;13.478;2022-08-04T16:16:00;5.47;;;0.60;;
44120;SDS011;29783;52.504;13.478;2022-08-04T16:20:55;2.45;;;0.52;;
44120;SDS011;29783;52.504;13.478;2022-08-04T16:26:10;2.95;;;0.90;;
44120;SDS011;29783;52.504;13.478;2022-08-04T16:28:37;1.73;;;0.50;;
44120;SDS011;29783;52.504;13.478;2022-08-04T16:31:08;6.10;;;0.75;;
44120;SDS011;29783;52.504;13.478;2022-08-04T16:33:35;14.13;;;0.93;;
44120;SDS011;29783;52.504;13.478;2022-08-04T16:36:04;2.55;;;0.70;;
44120;SDS011;29783;52.504;13.478;2022-08-04T16:38:32;4.13;;;0.70;;
44120;SDS011;29783;52.504;13.478;2022-08-04T16:41:40;2.90;;;0.70;;
44120;SDS011;29783;52.504;13.478;2022-08-04T16:46:58;3.58;;;0.70;;
44120;SDS011;29783;52.504;13.478;2022-08-04T16:49:24;2.00;;;0.80;;
44120;SDS011;29783;52.504;13.478;2022-08-04T16:51:51;5.18;;;0.82;;
44120;SDS011;29783;52.504;13.478;2022-08-04T16:54:18;4.53;;;0.77;;
44120;SDS011;29783;52.504;13.478;2022-08-04T16:56:46;2.10;;;1.00;;
44120;SDS011;29783;52.504;13.478;2022-08-04T16:59:12;1.92;;;0.60;;
44120;SDS011;29783;52.504;13.478;2022-08-04T17:01:49;2.47;;;0.73;;
44120;SDS011;29783;52.504;13.478;2022-08-04T17:04:15;1.48;;;0.70;;
44120;SDS011;29783;52.504;13.478;2022-08-04T17:06:43;6.20;;;0.70;;
44120;SDS011;29783;52.504;13.478;2022-08-04T17:09:13;2.40;;;0.67;;
44120;SDS011;29783;52.504;13.478;2022-08-04T17:11:41;5.35;;;0.55;;
44120;SDS011;29783;52.504;13.478;2022-08-04T17:14:08;10.90;;;0.80;;
44120;SDS011;29783;52.504;13.478;2022-08-04T17:16:36;2.65;;;0.60;;
44120;SDS011;29783;52.504;13.478;2022-08-04T17:19:04;2.58;;;0.65;;
44120;SDS011;29783;52.504;13.478;2022-08-04T17:21:32;1.52;;;0.55;;
44120;SDS011;29783;52.504;13.478;2022-08-04T17:23:59;6.75;;;0.60;;
44120;SDS011;29783;52.504;13.478;2022-08-04T17:26:27;3.95;;;0.90;;
44120;SDS011;29783;52.504;13.478;2022-08-04T17:28:55;0.57;;;0.45;;
44120;SDS011;29783;52.504;13.478;2022-08-04T17:31:22;4.90;;;0.70;;
44120;SDS011;29783;52.504;13.478;2022-08-04T17:33:54;8.27;;;1.00;;
44120;SDS011;29783;52.504;13.478;2022-08-04T17:36:22;3.78;;;0.73;;
44120;SDS011;29783;52.504;13.478;2022-08-04T17:38:56;1.38;;;0.80;;
44120;SDS011;29783;52.504;13.478;2022-08-04T17:41:24;5.32;;;1.00;;
44120;SDS011;29783;52.504;13.478;2022-08-04T17:43:52;8.15;;;1.05;;
44120;SDS011;29783;52.504;13.478;2022-08-04T17:51:21;3.55;;;1.50;;
44120;SDS011;29783;52.504;13.478;2022-08-04T17:53:58;4.50;;;1.30;;
44120;SDS011;29783;52.504;13.478;2022-08-04T17:56:38;3.42;;;1.35;;
44120;SDS011;29783;52.504;13.478;2022-08-04T18:01:58;6.38;;;1.70;;
44120;SDS011;29783;52.504;13.478;2022-08-04T18:07:10;4.68;;;1.92;;
44120;SDS011;29783;52.504;13.478;2022-08-04T18:14:49;9.25;;;1.63;;
44120;SDS011;29783;52.504;13.478;2022-08-04T18:20:03;4.35;;;1.95;;
44120;SDS011;29783;52.504;13.478;2022-08-04T18:22:34;5.47;;;1.92;;
44120;SDS011;29783;52.504;13.478;2022-08-04T18:25:00;6.63;;;2.15;;
44120;SDS011;29783;52.504;13.478;2022-08-04T18:27:26;8.60;;;3.00;;
44120;SDS011;29783;52.504;13.478;2022-08-04T18:29:53;4.40;;;2.22;;
44120;SDS011;29783;52.504;13.478;2022-08-04T18:32:19;13.45;;;3.17;;
44120;SDS011;29783;52.504;13.478;2022-08-04T18:34:47;9.60;;;2.40;;
44120;SDS011;29783;52.504;13.478;2022-08-04T18:37:17;11.65;;;2.33;;
44120;SDS011;29783;52.504;13.478;2022-08-04T18:39:43;5.75;;;2.20;;
44120;SDS011;29783;52.504;13.478;2022-08-04T18:42:09;12.13;;;2.30;;
44120;SDS011;29783;52.504;13.478;2022-08-04T18:44:36;3.90;;;2.30;;
44120;SDS011;29783;52.504;13.478;2022-08-04T18:47:02;12.38;;;2.55;;
44120;SDS011;29783;52.504;13.478;2022-08-04T18:49:28;11.20;;;2.28;;
44120;SDS011;29783;52.504;13.478;2022-08-04T18:51:54;8.82;;;2.42;;
44120;SDS011;29783;52.504;13.478;2022-08-04T18:54:21;6.47;;;2.90;;
44120;SDS011;29783;52.504;13.478;2022-08-04T18:56:49;7.00;;;2.05;;
44120;SDS011;29783;52.504;13.478;2022-08-04T18:59:16;16.20;;;3.17;;
44120;SDS011;29783;52.504;13.478;2022-08-04T19:01:42;11.50;;;2.40;;
44120;SDS011;29783;52.504;13.478;2022-08-04T19:04:08;8.48;;;3.08;;
44120;SDS011;29783;52.504;13.478;2022-08-04T19:06:34;12.45;;;2.50;;
44120;SDS011;29783;52.504;13.478;2022-08-04T19:09:01;11.23;;;2.88;;
44120;SDS011;29783;52.504;13.478;2022-08-04T19:11:28;6.65;;;2.85;;
44120;SDS011;29783;52.504;13.478;2022-08-04T19:13:54;9.68;;;5.47;;
44120;SDS011;29783;52.504;13.478;2022-08-04T19:16:19;9.63;;;3.22;;
44120;SDS011;29783;52.504;13.478;2022-08-04T19:18:45;8.85;;;2.80;;
44120;SDS011;29783;52.504;13.478;2022-08-04T19:21:11;14.32;;;3.20;;
44120;SDS011;29783;52.504;13.478;2022-08-04T19:23:37;5.63;;;2.92;;
44120;SDS011;29783;52.504;13.478;2022-08-04T19:26:03;8.98;;;3.50;;
44120;SDS011;29783;52.504;13.478;2022-08-04T19:28:29;8.70;;;3.00;;
44120;SDS011;29783;52.504;13.478;2022-08-04T19:30:56;7.30;;;3.20;;
44120;SDS011;29783;52.504;13.478;2022-08-04T19:33:22;11.18;;;3.58;;
44120;SDS011;29783;52.504;13.478;2022-08-04T19:35:48;13.93;;;3.60;;
44120;SDS011;29783;52.504;13.478;2022-08-04T19:38:14;12.82;;;3.55;;
44120;SDS011;29783;52.504;13.478;2022-08-04T19:40:42;6.75;;;3.13;;
44120;SDS011;29783;52.504;13.478;2022-08-04T19:43:09;11.65;;;3.88;;
44120;SDS011;29783;52.504;13.478;2022-08-04T19:45:35;7.93;;;3.28;;
44120;SDS011;29783;52.504;13.478;2022-08-04T19:48:01;4.85;;;3.53;;